createdAt,value
2018-02-19T00:00:23.163Z,101642.39
2018-02-19T00:02:51.510Z,101638.42
2018-02-19T00:05:19.858Z,101643.23
2018-02-19T00:07:48.258Z,101642.34
2018-02-19T00:10:16.601Z,101644.06
2018-02-19T00:12:44.926Z,101643.63
2018-02-19T00:15:13.270Z,101634.44
2018-02-19T00:17:41.674Z,101636.17
2018-02-19T00:20:10.050Z,101631.81
2018-02-19T00:22:38.417Z,101631.72
2018-02-19T00:25:06.794Z,101631.33
2018-02-19T00:27:35.113Z,101622.97
2018-02-19T00:30:03.458Z,101626.87
2018-02-19T00:32:31.787Z,101625.98
2018-02-19T00:35:00.206Z,101625.98
2018-02-19T00:37:28.582Z,101623.70
2018-02-19T00:39:56.910Z,101627.95
2018-02-19T00:42:25.338Z,101623.20
2018-02-19T00:44:53.662Z,101619.20
2018-02-19T00:47:22.006Z,101624.47
2018-02-19T00:49:50.325Z,101616.70
2018-02-19T00:52:18.673Z,101612.38
2018-02-19T00:54:46.998Z,101607.63
2018-02-19T00:57:15.347Z,101605.45
2018-02-19T00:59:43.774Z,101606.34
2018-02-19T01:02:12.154Z,101605.03
2018-02-19T01:04:40.482Z,101601.09
2018-02-19T01:07:08.826Z,101593.70
2018-02-19T01:09:37.154Z,101594.94
2018-02-19T01:12:05.522Z,101593.64
2018-02-19T01:14:33.849Z,101592.75
2018-02-19T01:17:02.214Z,101591.45
2018-02-19T01:19:30.582Z,101589.73
2018-02-19T01:21:58.930Z,101589.30
2018-02-19T01:24:27.332Z,101590.17
2018-02-19T01:26:55.712Z,101585.82
2018-02-19T01:29:24.037Z,101583.19
2018-02-19T01:31:52.469Z,101573.11
2018-02-19T01:34:20.788Z,101564.42
2018-02-19T01:36:49.134Z,101564.86
2018-02-19T01:39:17.458Z,101567.45
2018-02-19T01:41:45.810Z,101555.61
2018-02-19T01:44:14.149Z,101557.33
2018-02-19T01:46:42.497Z,101559.09
2018-02-19T01:49:10.906Z,101557.39
2018-02-19T01:51:39.246Z,101543.45
2018-02-19T01:54:07.574Z,101541.67
2018-02-19T01:56:35.913Z,101534.27
2018-02-19T01:59:04.242Z,101543.44
2018-02-19T02:01:32.584Z,101539.52
2018-02-19T02:04:00.962Z,101536.45
2018-02-19T02:06:29.310Z,101532.54
2018-02-19T02:08:57.637Z,101529.49
2018-02-19T02:11:25.981Z,101526.81
2018-02-19T02:13:54.301Z,101520.17
2018-02-19T02:16:22.754Z,101520.63
2018-02-19T02:18:51.124Z,101511.87
2018-02-19T02:21:19.470Z,101511.47
2018-02-19T02:23:47.793Z,101507.49
2018-02-19T02:26:16.154Z,101505.73
2018-02-19T02:28:44.478Z,101503.98
2018-02-19T02:31:12.832Z,101507.87
2018-02-19T02:33:41.187Z,101497.85
2018-02-19T02:36:09.530Z,101497.87
2018-02-19T02:38:37.939Z,101491.33
2018-02-19T02:41:06.259Z,101488.30
2018-02-19T02:43:34.598Z,101492.22
2018-02-19T02:46:02.970Z,101485.28
2018-02-19T02:48:31.350Z,101490.51
2018-02-19T02:50:59.675Z,101494.83
2018-02-19T02:53:28.025Z,101487.83
2018-02-19T02:55:56.347Z,101490.42
2018-02-19T02:58:24.754Z,101482.20
2018-02-19T03:00:53.083Z,101479.14
2018-02-19T03:03:21.433Z,101478.72
2018-02-19T03:05:50.070Z,101478.72
2018-02-19T03:08:18.470Z,101484.33
2018-02-19T03:10:46.805Z,101479.96
2018-02-19T03:13:15.151Z,101473.83
2018-02-19T03:15:43.499Z,101476.88
2018-02-19T03:18:11.842Z,101473.42
2018-02-19T03:20:40.255Z,101481.28
2018-02-19T03:23:08.634Z,101479.94
2018-02-19T03:25:37.005Z,101470.36
2018-02-19T03:28:05.349Z,101471.28
2018-02-19T03:30:33.762Z,101471.70
2018-02-19T03:33:02.194Z,101468.22
2018-02-19T03:35:30.536Z,101461.67
2018-02-19T03:37:58.846Z,101469.98
2018-02-19T03:40:27.269Z,101462.16
2018-02-19T03:42:55.613Z,101461.73
2018-02-19T03:45:24.025Z,101462.56
2018-02-19T03:47:52.367Z,101454.28
2018-02-19T03:50:20.690Z,101456.89
2018-02-19T03:52:49.054Z,101452.61
2018-02-19T03:55:17.377Z,101448.64
2018-02-19T03:57:45.726Z,101451.28
2018-02-19T04:00:14.082Z,101439.04
2018-02-19T04:02:42.427Z,101441.61
2018-02-19T04:05:10.761Z,101443.84
2018-02-19T04:07:39.113Z,101432.08
2018-02-19T04:10:07.438Z,101427.31
2018-02-19T04:12:35.869Z,101429.06
2018-02-19T04:15:04.250Z,101426.00
2018-02-19T04:17:32.643Z,101426.88
2018-02-19T04:20:00.998Z,101426.05
2018-02-19T04:22:29.342Z,101423.87
2018-02-19T04:24:57.666Z,101423.43
2018-02-19T04:27:26.009Z,101417.32
2018-02-19T04:29:54.405Z,101409.06
2018-02-19T04:32:22.755Z,101410.36
2018-02-19T04:34:51.082Z,101414.27
2018-02-19T04:37:19.538Z,101407.31
2018-02-19T04:39:47.887Z,101406.84
2018-02-19T04:42:16.316Z,101403.37
2018-02-19T04:44:50.178Z,101403.39
2018-02-19T04:47:18.578Z,101401.63
2018-02-19T04:49:46.906Z,101402.93
2018-02-19T04:52:15.231Z,101393.79
2018-02-19T04:54:43.577Z,101392.05
2018-02-19T04:57:11.898Z,101388.12
2018-02-19T04:59:40.242Z,101391.19
2018-02-19T05:02:08.566Z,101395.98
2018-02-19T05:04:37.013Z,101396.91
2018-02-19T05:07:05.334Z,101401.70
2018-02-19T05:09:33.677Z,101396.96
2018-02-19T05:12:01.998Z,101396.95
2018-02-19T05:14:30.349Z,101397.39
2018-02-19T05:16:58.670Z,101410.45
2018-02-19T05:19:27.019Z,101407.81
2018-02-19T05:21:55.344Z,101403.01
2018-02-19T05:24:23.693Z,101405.59
2018-02-19T05:26:52.009Z,101407.81
2018-02-19T05:29:20.359Z,101401.69
2018-02-19T05:31:48.681Z,101398.68
2018-02-19T05:34:17.030Z,101404.76
2018-02-19T05:36:45.362Z,101406.06
2018-02-19T05:39:13.711Z,101403.89
2018-02-19T05:41:43.901Z,101406.47
2018-02-19T05:44:12.262Z,101407.77
2018-02-19T05:46:40.846Z,101402.58
2018-02-19T05:49:09.460Z,101400.40
2018-02-19T05:51:37.794Z,101400.80
2018-02-19T05:54:06.148Z,101397.74
2018-02-19T05:56:34.481Z,101401.66
2018-02-19T05:59:02.830Z,101396.02
2018-02-19T06:01:31.158Z,101404.27
2018-02-19T06:03:59.519Z,101399.92
2018-02-19T06:06:27.852Z,101400.81
2018-02-19T06:08:56.202Z,101404.27
2018-02-19T06:11:24.585Z,101412.11
2018-02-19T06:13:52.914Z,101409.13
2018-02-19T06:16:21.329Z,101416.98
2018-02-19T06:18:49.685Z,101416.08
2018-02-19T06:21:18.018Z,101416.94
2018-02-19T06:23:46.379Z,101420.45
2018-02-19T06:26:14.698Z,101418.69
2018-02-19T06:28:43.046Z,101415.68
2018-02-19T06:31:11.375Z,101423.92
2018-02-19T06:33:39.727Z,101419.59
2018-02-19T06:36:08.050Z,101418.30
2018-02-19T06:38:36.402Z,101418.27
2018-02-19T06:41:04.778Z,101416.91
2018-02-19T06:43:33.124Z,101417.34
2018-02-19T06:46:01.456Z,101412.53
2018-02-19T06:48:29.797Z,101416.93
2018-02-19T06:50:58.130Z,101419.53
2018-02-19T06:53:26.537Z,101416.92
2018-02-19T06:55:54.862Z,101417.83
2018-02-19T06:58:23.185Z,101416.97
2018-02-19T07:00:51.534Z,101416.09
2018-02-19T07:03:19.867Z,101419.58
2018-02-19T07:05:48.222Z,101423.05
2018-02-19T07:08:16.546Z,101417.81
2018-02-19T07:10:44.895Z,101416.92
2018-02-19T07:13:13.222Z,101418.67
2018-02-19T07:15:41.575Z,101422.57
2018-02-19T07:18:09.898Z,101417.81
2018-02-19T07:20:38.252Z,101414.32
2018-02-19T07:23:06.573Z,101418.27
2018-02-19T07:25:34.922Z,101415.22
2018-02-19T07:28:03.251Z,101406.48
2018-02-19T07:30:31.594Z,101411.30
2018-02-19T07:32:59.917Z,101412.59
2018-02-19T07:35:28.262Z,101407.35
2018-02-19T07:37:56.586Z,101413.94
2018-02-19T07:40:24.935Z,101409.56
2018-02-19T07:42:53.267Z,101410.45
2018-02-19T07:45:21.618Z,101414.81
2018-02-19T07:47:49.941Z,101413.48
2018-02-19T07:50:18.321Z,101410.45
2018-02-19T07:52:46.617Z,101412.19
2018-02-19T07:55:14.975Z,101401.75
2018-02-19T07:57:43.312Z,101399.58
2018-02-19T08:00:11.703Z,101397.40
2018-02-19T08:02:40.027Z,101390.41
2018-02-19T08:05:08.378Z,101387.35
2018-02-19T08:07:37.178Z,101387.79
2018-02-19T08:10:05.533Z,101388.66
2018-02-19T08:12:33.941Z,101386.05
2018-02-19T08:15:02.342Z,101377.31
2018-02-19T08:17:30.692Z,101377.32
2018-02-19T08:19:59.062Z,101384.73
2018-02-19T08:22:27.495Z,101381.22
2018-02-19T08:24:55.912Z,101377.31
2018-02-19T08:27:24.225Z,101379.48
2018-02-19T08:29:52.574Z,101378.59
2018-02-19T08:32:20.906Z,101387.76
2018-02-19T08:34:49.254Z,101385.14
2018-02-19T08:37:17.586Z,101379.47
2018-02-19T08:39:45.939Z,101378.59
2018-02-19T08:42:14.270Z,101374.19
2018-02-19T08:44:42.622Z,101372.03
2018-02-19T08:47:10.954Z,101373.28
2018-02-19T08:49:39.306Z,101373.30
2018-02-19T08:52:07.639Z,101375.45
2018-02-19T08:54:35.966Z,101371.50
2018-02-19T08:57:04.318Z,101371.52
2018-02-19T08:59:32.663Z,101370.19
2018-02-19T09:02:01.001Z,101372.39
2018-02-19T09:04:29.334Z,101368.42
2018-02-19T09:06:57.681Z,101365.79
2018-02-19T09:09:26.006Z,101367.09
2018-02-19T09:11:54.358Z,101369.33
2018-02-19T09:14:22.685Z,101365.84
2018-02-19T09:16:51.037Z,101361.88
2018-02-19T09:19:19.374Z,101353.59
2018-02-19T09:21:47.718Z,101355.78
2018-02-19T09:24:16.050Z,101360.61
2018-02-19T09:26:44.407Z,101361.47
2018-02-19T09:29:12.745Z,101359.70
2018-02-19T09:31:41.099Z,101357.06
2018-02-19T09:34:09.422Z,101354.47
2018-02-19T09:36:38.161Z,101349.65
2018-02-19T09:39:06.490Z,101355.36
2018-02-19T09:41:34.846Z,101344.03
2018-02-19T09:44:03.179Z,101350.52
2018-02-19T09:46:31.522Z,101352.28
2018-02-19T09:48:59.858Z,101354.05
2018-02-19T09:51:28.218Z,101351.82
2018-02-19T09:53:56.546Z,101352.72
2018-02-19T09:56:24.979Z,101356.21
2018-02-19T09:58:53.306Z,101349.14
2018-02-19T10:01:21.663Z,101352.13
2018-02-19T10:03:49.991Z,101349.47
2018-02-19T10:06:18.342Z,101350.30
2018-02-19T10:08:46.674Z,101347.19
2018-02-19T10:11:15.026Z,101348.08
2018-02-19T10:13:43.354Z,101343.61
2018-02-19T10:16:12.706Z,101341.81
2018-02-19T10:18:41.038Z,101344.45
2018-02-19T10:21:09.385Z,101348.05
2018-02-19T10:23:37.711Z,101344.94
2018-02-19T10:26:06.063Z,101351.00
2018-02-19T10:28:34.386Z,101336.58
2018-02-19T10:31:02.738Z,101337.83
2018-02-19T10:33:31.070Z,101339.58
2018-02-19T10:35:59.526Z,101331.27
2018-02-19T10:38:27.860Z,101334.68
2018-02-19T10:40:56.202Z,101331.20
2018-02-19T10:43:24.542Z,101335.60
2018-02-19T10:45:52.886Z,101328.98
2018-02-19T10:48:21.219Z,101324.20
2018-02-19T10:50:49.574Z,101324.09
2018-02-19T10:53:17.898Z,101321.41
2018-02-19T10:55:47.159Z,101320.18
2018-02-19T10:58:15.488Z,101321.00
2018-02-19T11:00:45.544Z,101314.92
2018-02-19T11:03:13.902Z,101321.87
2018-02-19T11:05:42.234Z,101315.29
2018-02-19T11:08:10.646Z,101313.48
2018-02-19T11:13:21.299Z,101313.59
2018-02-19T11:15:49.585Z,101315.11
2018-02-19T11:18:17.934Z,101306.78
2018-02-19T11:20:46.267Z,101307.48
2018-02-19T11:23:14.618Z,101304.89
2018-02-19T11:25:42.946Z,101299.33
2018-02-19T11:28:11.394Z,101300.38
2018-02-19T11:30:39.723Z,101295.05
2018-02-19T11:33:08.069Z,101295.63
2018-02-19T11:35:36.398Z,101288.52
2018-02-19T11:38:04.747Z,101286.59
2018-02-19T11:40:33.079Z,101283.52
2018-02-19T11:43:01.427Z,101278.37
2018-02-19T11:45:30.338Z,101270.84
2018-02-19T11:47:58.694Z,101264.78
2018-02-19T11:50:27.019Z,101268.22
2018-02-19T11:52:55.421Z,101269.97
2018-02-19T11:55:23.698Z,101263.06
2018-02-19T11:57:52.046Z,101257.66
2018-02-19T12:00:20.379Z,101265.16
2018-02-19T12:02:48.729Z,101263.64
2018-02-19T12:05:17.154Z,101264.85
2018-02-19T12:07:45.502Z,101255.61
2018-02-19T12:10:13.830Z,101257.63
2018-02-19T12:12:42.184Z,101255.78
2018-02-19T12:15:10.510Z,101249.13
2018-02-19T12:17:38.867Z,101244.27
2018-02-19T12:20:07.294Z,101238.62
2018-02-19T12:22:35.642Z,101240.11
2018-02-19T12:25:04.886Z,101237.37
2018-02-19T12:27:33.238Z,101226.77
2018-02-19T12:30:01.574Z,101234.87
2018-02-19T12:32:29.934Z,101234.39
2018-02-19T12:34:58.262Z,101224.86
2018-02-19T12:37:26.656Z,101224.34
2018-02-19T12:39:54.983Z,101217.38
2018-02-19T12:42:23.325Z,101209.72
2018-02-19T12:44:51.663Z,101212.87
2018-02-19T12:47:20.011Z,101206.37
2018-02-19T12:49:48.346Z,101212.43
2018-02-19T12:52:16.699Z,101204.19
2018-02-19T12:54:45.027Z,101196.73
2018-02-19T12:57:13.383Z,101198.12
2018-02-19T12:59:41.706Z,101195.41
2018-02-19T13:02:10.052Z,101191.83
2018-02-19T13:04:39.334Z,101194.72
2018-02-19T13:07:07.699Z,101188.15
2018-02-19T13:09:36.030Z,101186.58
2018-02-19T13:12:04.390Z,101189.12
2018-02-19T13:14:32.726Z,101189.58
2018-02-19T13:17:01.078Z,101188.72
2018-02-19T13:19:29.459Z,101188.63
2018-02-19T13:21:57.886Z,101187.94
2018-02-19T13:24:26.318Z,101183.59
2018-02-19T13:26:54.650Z,101178.83
2018-02-19T13:29:23.070Z,101180.26
2018-02-19T13:31:51.458Z,101175.06
2018-02-19T13:34:19.811Z,101179.46
2018-02-19T13:36:48.134Z,101184.12
2018-02-19T13:39:16.487Z,101179.23
2018-02-19T13:41:44.851Z,101174.89
2018-02-19T13:44:13.697Z,101177.70
2018-02-19T13:46:42.022Z,101168.09
2018-02-19T13:49:10.394Z,101177.09
2018-02-19T13:51:38.770Z,101170.50
2018-02-19T13:54:07.147Z,101167.33
2018-02-19T13:56:35.569Z,101167.72
2018-02-19T13:59:04.006Z,101170.45
2018-02-19T14:01:32.330Z,101167.77
2018-02-19T14:04:00.766Z,101169.73
2018-02-19T14:06:29.134Z,101172.36
2018-02-19T14:08:57.522Z,101167.25
2018-02-19T14:11:25.856Z,101168.81
2018-02-19T14:13:54.206Z,101160.30
2018-02-19T14:16:22.634Z,101162.66
2018-02-19T14:18:50.982Z,101158.38
2018-02-19T14:21:19.758Z,101157.23
2018-02-19T14:23:48.182Z,101157.44
2018-02-19T14:26:16.505Z,101156.13
2018-02-19T14:28:44.854Z,101160.52
2018-02-19T14:31:13.221Z,101154.64
2018-02-19T14:33:41.602Z,101153.72
2018-02-19T14:36:09.974Z,101153.61
2018-02-19T14:38:38.325Z,101142.90
2018-02-19T14:41:06.653Z,101150.80
2018-02-19T14:43:35.006Z,101150.47
2018-02-19T14:46:03.338Z,101147.41
2018-02-19T14:48:31.685Z,101148.28
2018-02-19T14:51:00.138Z,101139.67
2018-02-19T14:53:28.529Z,101129.59
2018-02-19T14:55:56.858Z,101139.78
2018-02-19T14:58:26.032Z,101132.17
2018-02-19T15:00:54.347Z,101130.84
2018-02-19T15:03:22.692Z,101133.05
2018-02-19T15:05:51.905Z,101130.23
2018-02-19T15:08:20.242Z,101136.23
2018-02-19T15:10:48.566Z,101129.16
2018-02-19T15:13:16.919Z,101128.33
2018-02-19T15:15:45.242Z,101124.00
2018-02-19T15:18:13.574Z,101128.72
2018-02-19T15:20:41.918Z,101126.23
2018-02-19T15:23:10.246Z,101129.74
2018-02-19T15:25:39.084Z,101122.81
2018-02-19T15:28:07.405Z,101129.69
2018-02-19T15:30:35.940Z,101125.13
2018-02-19T15:33:04.282Z,101126.17
2018-02-19T15:35:32.630Z,101132.24
2018-02-19T15:38:00.958Z,101126.11
2018-02-19T15:40:29.419Z,101129.63
2018-02-19T15:42:57.789Z,101124.69
2018-02-19T15:45:26.734Z,101127.77
2018-02-19T15:47:55.989Z,101129.91
2018-02-19T15:50:24.359Z,101132.97
2018-02-19T15:52:52.739Z,101128.16
2018-02-19T15:55:21.094Z,101125.08
2018-02-19T15:57:49.427Z,101128.64
2018-02-19T16:00:17.784Z,101131.77
2018-02-19T16:02:46.110Z,101137.48
2018-02-19T16:05:14.514Z,101131.77
2018-02-19T16:07:42.851Z,101135.01
2018-02-19T16:10:11.208Z,101136.76
2018-02-19T16:12:39.547Z,101134.91
2018-02-19T16:15:07.900Z,101133.20
2018-02-19T16:17:36.302Z,101135.56
2018-02-19T16:20:04.666Z,101135.83
2018-02-19T16:22:33.173Z,101141.48
2018-02-19T16:25:01.814Z,101139.34
2018-02-19T16:27:30.237Z,101139.45
2018-02-19T16:29:58.599Z,101138.25
2018-02-19T16:32:27.129Z,101137.92
2018-02-19T16:34:55.590Z,101136.31
2018-02-19T16:37:23.906Z,101137.88
2018-02-19T16:39:52.318Z,101129.69
2018-02-19T16:42:20.690Z,101128.48
2018-02-19T16:44:49.066Z,101138.72
2018-02-19T16:47:17.390Z,101125.26
2018-02-19T16:49:45.764Z,101124.38
2018-02-19T16:52:14.098Z,101123.61
2018-02-19T16:54:42.468Z,101122.49
2018-02-19T16:57:10.798Z,101121.37
2018-02-19T16:59:39.151Z,101119.36
2018-02-19T17:02:07.487Z,101116.43
2018-02-19T17:04:35.880Z,101114.77
2018-02-19T17:07:04.210Z,101120.60
2018-02-19T17:09:32.638Z,101118.53
2018-02-19T17:12:01.014Z,101117.27
2018-02-19T17:14:29.358Z,101113.61
2018-02-19T17:16:57.970Z,101114.48
2018-02-19T17:19:26.345Z,101115.44
2018-02-19T17:21:54.670Z,101121.13
2018-02-19T17:24:23.090Z,101116.31
2018-02-19T17:26:51.434Z,101115.05
2018-02-19T17:29:19.770Z,101123.88
2018-02-19T17:31:48.180Z,101117.89
2018-02-19T17:34:16.493Z,101120.36
2018-02-19T17:36:45.454Z,101117.59
2018-02-19T17:39:13.786Z,101118.20
2018-02-19T17:41:42.142Z,101120.92
2018-02-19T17:44:10.496Z,101121.39
2018-02-19T17:46:38.878Z,101130.58
2018-02-19T17:49:07.202Z,101134.08
2018-02-19T17:51:35.654Z,101138.31
2018-02-19T17:54:03.986Z,101132.63
2018-02-19T17:56:32.414Z,101131.73
2018-02-19T17:59:00.789Z,101130.89
2018-02-19T18:01:29.146Z,101135.67
2018-02-19T18:03:57.546Z,101136.19
2018-02-19T18:06:25.926Z,101129.03
2018-02-19T18:08:54.253Z,101131.66
2018-02-19T18:11:22.651Z,101127.68
2018-02-19T18:13:50.978Z,101131.56
2018-02-19T18:16:20.337Z,101131.56
2018-02-19T18:18:48.663Z,101127.75
2018-02-19T18:21:17.109Z,101135.52
2018-02-19T18:23:45.446Z,101133.31
2018-02-19T18:26:13.786Z,101134.70
2018-02-19T18:28:42.138Z,101132.03
2018-02-19T18:31:10.493Z,101136.42
2018-02-19T18:33:38.821Z,101136.69
2018-02-19T18:36:07.434Z,101136.70
2018-02-19T18:38:35.847Z,101136.62
2018-02-19T18:41:04.198Z,101133.98
2018-02-19T18:43:32.706Z,101137.02
2018-02-19T18:46:01.054Z,101138.55
2018-02-19T18:48:29.396Z,101139.80
2018-02-19T18:50:57.742Z,101138.87
2018-02-19T18:53:26.074Z,101148.53
2018-02-19T18:55:54.490Z,101145.95
2018-02-19T18:58:22.862Z,101153.83
2018-02-19T19:00:51.222Z,101147.70
2018-02-19T19:03:19.559Z,101158.22
2018-02-19T19:05:47.936Z,101156.52
2018-02-19T19:08:28.253Z,101155.05
2018-02-19T19:10:56.632Z,101153.22
2018-02-19T19:13:25.046Z,101155.37
2018-02-19T19:15:53.409Z,101154.49
2018-02-19T19:18:21.738Z,101154.12
2018-02-19T19:20:50.090Z,101155.87
2018-02-19T19:23:18.519Z,101153.25
2018-02-19T19:25:46.874Z,101156.71
2018-02-19T19:28:15.206Z,101154.97
2018-02-19T19:30:43.550Z,101154.55
2018-02-19T19:33:11.882Z,101154.59
2018-02-19T19:35:40.247Z,101151.06
2018-02-19T19:38:08.596Z,101151.52
2018-02-19T19:40:37.394Z,101151.97
2018-02-19T19:43:05.753Z,101148.03
2018-02-19T19:45:34.086Z,101138.00
2018-02-19T19:48:02.443Z,101143.28
2018-02-19T19:50:30.770Z,101149.36
2018-02-19T19:52:59.128Z,101144.15
2018-02-19T19:55:27.455Z,101146.40
2018-02-19T19:57:55.801Z,101145.09
2018-02-19T20:00:24.155Z,101143.34
2018-02-19T20:02:52.538Z,101141.02
2018-02-19T20:05:20.866Z,101143.17
2018-02-19T20:07:49.210Z,101140.55
2018-02-19T20:10:17.537Z,101139.06
2018-02-19T20:12:46.005Z,101136.65
2018-02-19T20:15:14.439Z,101129.77
2018-02-19T20:17:42.813Z,101128.57
2018-02-19T20:20:11.742Z,101131.31
2018-02-19T20:22:40.099Z,101124.80
2018-02-19T20:25:08.426Z,101124.85
2018-02-19T20:27:36.835Z,101130.54
2018-02-19T20:30:05.216Z,101129.73
2018-02-19T20:32:33.602Z,101126.26
2018-02-19T20:35:01.944Z,101123.63
2018-02-19T20:37:30.320Z,101126.27
2018-02-19T20:39:58.656Z,101128.44
2018-02-19T20:42:27.050Z,101124.53
2018-02-19T20:44:55.374Z,101120.16
2018-02-19T20:47:23.727Z,101121.08
2018-02-19T20:49:52.847Z,101119.33
2018-02-19T20:52:21.205Z,101126.12
2018-02-19T20:54:49.856Z,101118.63
2018-02-19T20:57:18.266Z,101114.30
2018-02-19T20:59:47.554Z,101112.11
2018-02-19T21:02:15.937Z,101116.13
2018-02-19T21:04:44.285Z,101117.97
2018-02-19T21:07:12.717Z,101114.95
2018-02-19T21:09:41.361Z,101112.38
2018-02-19T21:12:09.780Z,101104.58
2018-02-19T21:14:38.135Z,101105.08
2018-02-19T21:17:06.505Z,101106.02
2018-02-19T21:19:35.172Z,101110.81
2018-02-19T21:22:04.337Z,101109.55
2018-02-19T21:24:32.683Z,101113.49
2018-02-19T21:27:01.039Z,101108.28
2018-02-19T21:29:29.417Z,101105.73
2018-02-19T21:31:57.814Z,101111.04
2018-02-19T21:34:26.139Z,101113.20
2018-02-19T21:36:54.613Z,101113.23
2018-02-19T21:39:22.929Z,101113.72
2018-02-19T21:41:52.218Z,101114.69
2018-02-19T21:44:20.618Z,101110.38
2018-02-19T21:46:48.962Z,101110.78
2018-02-19T21:49:17.322Z,101107.31
2018-02-19T21:51:45.822Z,101108.64
2018-02-19T21:54:14.232Z,101106.88
2018-02-19T21:56:43.122Z,101106.44
2018-02-19T21:59:12.319Z,101110.80
2018-02-19T22:01:40.650Z,101105.56
2018-02-19T22:04:09.002Z,101107.76
2018-02-19T22:06:37.363Z,101105.09
2018-02-19T22:09:08.897Z,101097.69
2018-02-19T22:11:37.234Z,101099.44
2018-02-19T22:14:05.799Z,101100.28
2018-02-19T22:16:34.137Z,101108.17
2018-02-19T22:19:02.502Z,101110.37
2018-02-19T22:21:30.880Z,101108.63
2018-02-19T22:23:59.259Z,101106.86
2018-02-19T22:26:27.650Z,101107.27
2018-02-19T22:28:56.008Z,101105.95
2018-02-19T22:31:24.331Z,101104.19
2018-02-19T22:33:52.682Z,101107.25
2018-02-19T22:36:21.022Z,101104.20
2018-02-19T22:38:49.366Z,101109.91
2018-02-19T22:41:17.709Z,101106.88
2018-02-19T22:43:46.054Z,101116.49
2018-02-19T22:46:14.460Z,101104.73
2018-02-19T22:48:42.806Z,101116.03
2018-02-19T22:51:11.134Z,101110.81
2018-02-19T22:53:39.578Z,101114.73
2018-02-19T22:56:07.906Z,101116.50
2018-02-19T22:58:36.308Z,101119.98
2018-02-19T23:01:04.586Z,101123.02
2018-02-19T23:03:32.941Z,101127.80
2018-02-19T23:06:01.271Z,101128.28
2018-02-19T23:08:29.613Z,101126.11
2018-02-19T23:10:58.026Z,101132.66
2018-02-19T23:13:26.401Z,101134.39
2018-02-19T23:15:54.728Z,101137.44
2018-02-19T23:18:23.073Z,101133.53
2018-02-19T23:20:51.403Z,101131.33
2018-02-19T23:23:19.813Z,101135.25
2018-02-19T23:25:48.186Z,101127.41
2018-02-19T23:28:16.567Z,101136.14
2018-02-19T23:30:44.901Z,101128.30
2018-02-19T23:33:13.322Z,101130.03
2018-02-19T23:35:41.651Z,101130.46
2018-02-19T23:38:10.074Z,101131.78
2018-02-19T23:40:38.402Z,101128.72
2018-02-19T23:43:06.754Z,101133.95
2018-02-19T23:45:35.081Z,101135.69
2018-02-19T23:48:03.402Z,101133.95
2018-02-19T23:50:31.858Z,101133.49
2018-02-19T23:53:00.190Z,101135.23
2018-02-19T23:55:28.609Z,101136.50
2018-02-19T23:57:56.990Z,101136.99
